Time;durP1;ratioP1;P1;durP2;ratioP2;P2;SDS_P1;SDS_P2;PMS_P1;PMS_P2;Temp;Humidity;BMP_temperature;BMP_pressure;BME280_temperature;BME280_humidity;BME280_pressure;Samples;Min_cycle;Max_cycle;Signal;HPM_P1;HPM_P2
2023/03/12 00:01:50;;;;;;;9.60;5.93;;;1.80;99.90;;;;;;5002723;28;20418;-63
2023/03/12 00:04:17;;;;;;;10.52;5.80;;;1.80;58.40;;;;;;5001369;28;20418;-63
2023/03/12 00:06:43;;;;;;;8.73;5.40;;;1.70;1.00;;;;;;5003244;28;20416;-64
2023/03/12 00:09:10;;;;;;;14.23;7.65;;;1.70;1.00;;;;;;5003347;28;20409;-63
2023/03/12 00:11:37;;;;;;;11.93;6.75;;;1.60;1.00;;;;;;5004219;28;20426;-63
2023/03/12 00:14:05;;;;;;;12.70;6.13;;;1.60;1.00;;;;;;5003884;28;20451;-64
2023/03/12 00:16:32;;;;;;;9.18;5.75;;;1.40;1.00;;;;;;5004678;28;20423;-62
2023/03/12 00:18:59;;;;;;;9.68;4.47;;;1.40;1.00;;;;;;5001949;28;20488;-62
2023/03/12 00:21:25;;;;;;;6.18;3.35;;;1.40;1.00;;;;;;4998543;28;20423;-62
2023/03/12 00:23:52;;;;;;;7.70;3.63;;;1.40;1.00;;;;;;5010492;28;20416;-60
2023/03/12 00:26:21;;;;;;;6.10;3.20;;;1.40;1.00;;;;;;5003804;28;20422;-60
2023/03/12 00:28:49;;;;;;;7.72;4.03;;;1.40;1.00;;;;;;5000785;28;20464;-64
2023/03/12 00:31:19;;;;;;;10.10;5.57;;;1.40;1.00;;;;;;4999376;28;20430;-64
2023/03/12 00:33:48;;;;;;;9.60;4.93;;;1.40;1.00;;;;;;5007627;28;20425;-63
2023/03/12 00:36:14;;;;;;;9.07;4.85;;;1.50;1.00;;;;;;5007296;28;20458;-63
2023/03/12 00:38:41;;;;;;;8.27;4.55;;;1.40;1.00;;;;;;5001582;28;20433;-64
2023/03/12 00:41:08;;;;;;;11.07;5.10;;;1.40;1.00;;;;;;5001316;28;20414;-64
2023/03/12 00:43:35;;;;;;;9.15;4.88;;;1.60;1.00;;;;;;5002844;28;20782;-64
2023/03/12 00:46:01;;;;;;;9.82;4.82;;;1.60;1.00;;;;;;5003685;28;20468;-63
2023/03/12 00:48:30;;;;;;;10.07;4.35;;;1.70;1.00;;;;;;5002293;28;20468;-63
2023/03/12 00:50:56;;;;;;;6.60;3.60;;;1.60;99.90;;;;;;5000574;28;20481;-64
2023/03/12 00:53:23;;;;;;;6.85;3.67;;;1.70;99.90;;;;;;5008233;28;20420;-64
2023/03/12 00:55:50;;;;;;;8.77;3.78;;;1.60;99.90;;;;;;5001328;28;20418;-64
2023/03/12 00:58:17;;;;;;;6.30;3.25;;;1.70;99.90;;;;;;5002706;28;20459;-64
2023/03/12 01:00:43;;;;;;;6.65;3.53;;;1.70;99.90;;;;;;5001168;28;20480;-64
2023/03/12 01:03:10;;;;;;;7.07;3.15;;;1.70;99.90;;;;;;5000305;28;20419;-64
2023/03/12 01:05:39;;;;;;;5.63;2.80;;;1.70;99.90;;;;;;5002237;28;20467;-63
2023/03/12 01:08:06;;;;;;;4.65;2.70;;;1.80;99.90;;;;;;5002224;28;20503;-64
2023/03/12 01:10:34;;;;;;;7.72;2.75;;;1.70;99.90;;;;;;5002161;28;20502;-64
2023/03/12 01:13:01;;;;;;;5.07;2.53;;;1.70;99.90;;;;;;5005296;28;20824;-64
2023/03/12 01:15:28;;;;;;;7.00;2.55;;;1.70;99.90;;;;;;5003240;28;20416;-64
2023/03/12 01:17:55;;;;;;;6.70;2.60;;;1.70;99.90;;;;;;5000681;28;20414;-64
2023/03/12 01:20:23;;;;;;;4.75;2.70;;;1.80;99.90;;;;;;4999732;28;20430;-64
2023/03/12 01:22:52;;;;;;;5.47;2.65;;;1.80;99.90;;;;;;4995690;28;20411;-64
2023/03/12 01:25:19;;;;;;;5.97;3.10;;;1.90;99.90;;;;;;5006500;28;20514;-64
2023/03/12 01:27:46;;;;;;;4.57;2.60;;;1.90;99.90;;;;;;5002582;28;20424;-64
2023/03/12 01:30:13;;;;;;;5.32;2.67;;;1.90;99.90;;;;;;5001092;28;20418;-64
2023/03/12 01:32:40;;;;;;;5.50;2.33;;;1.90;83.70;;;;;;4999724;28;20507;-64
2023/03/12 01:35:07;;;;;;;6.65;2.55;;;1.90;99.90;;;;;;5001391;28;20429;-64
2023/03/12 01:37:34;;;;;;;5.28;2.75;;;2.00;96.40;;;;;;5001703;28;20444;-64
2023/03/12 01:40:03;;;;;;;6.53;2.70;;;1.90;96.40;;;;;;4999261;28;20438;-63
2023/03/12 01:42:30;;;;;;;4.22;2.60;;;1.90;97.00;;;;;;5000523;28;20762;-64
2023/03/12 01:44:58;;;;;;;4.90;2.40;;;1.90;99.90;;;;;;5002156;28;20412;-64
2023/03/12 01:47:26;;;;;;;7.13;2.80;;;1.90;99.90;;;;;;4998280;28;20420;-64
2023/03/12 01:49:55;;;;;;;6.82;3.90;;;1.90;99.90;;;;;;5001679;28;20812;-64
2023/03/12 01:52:24;;;;;;;19.48;8.23;;;2.00;99.90;;;;;;5000424;28;20422;-64
2023/03/12 01:54:58;;;;;;;11.40;4.90;;;2.00;99.90;;;;;;5007124;28;20420;-64
2023/03/12 01:57:30;;;;;;;6.95;2.88;;;2.00;99.90;;;;;;4997715;28;20424;-64
2023/03/12 02:00:00;;;;;;;5.15;2.58;;;2.00;97.50;;;;;;5005173;28;20428;-64
2023/03/12 02:02:28;;;;;;;5.40;2.43;;;2.00;99.90;;;;;;5003500;28;20515;-64
2023/03/12 02:05:04;;;;;;;4.60;2.33;;;2.00;99.90;;;;;;5008036;28;20815;-64
2023/03/12 02:07:33;;;;;;;4.22;2.47;;;2.00;97.90;;;;;;5001808;28;20835;-64
2023/03/12 02:09:59;;;;;;;7.60;2.80;;;1.90;99.90;;;;;;4999936;28;20468;-64
2023/03/12 02:12:27;;;;;;;5.20;2.60;;;2.00;99.90;;;;;;4999609;28;20422;-63
2023/03/12 02:14:54;;;;;;;4.13;2.42;;;2.00;97.80;;;;;;5001593;28;20420;-64
2023/03/12 02:17:21;;;;;;;5.32;2.58;;;2.10;83.80;;;;;;5000322;28;20893;-64
2023/03/12 02:19:57;;;;;;;5.82;2.70;;;2.10;99.90;;;;;;4999006;28;20925;-63
2023/03/12 02:22:24;;;;;;;5.35;2.83;;;2.00;99.90;;;;;;5003632;28;20419;-64
2023/03/12 02:24:57;;;;;;;6.13;2.50;;;2.10;99.90;;;;;;5011512;28;20475;-63
2023/03/12 02:27:25;;;;;;;6.38;2.70;;;2.00;99.90;;;;;;5002585;28;20503;-63
2023/03/12 02:29:52;;;;;;;4.32;2.55;;;2.00;99.90;;;;;;5002402;28;20416;-63
2023/03/12 02:32:24;;;;;;;8.73;2.70;;;2.10;99.90;;;;;;5003259;28;20418;-64
2023/03/12 02:34:50;;;;;;;4.70;2.37;;;2.10;90.80;;;;;;5006407;28;20427;-63
2023/03/12 02:37:18;;;;;;;4.18;2.40;;;2.10;90.00;;;;;;5004611;28;20476;-64
2023/03/12 02:39:51;;;;;;;4.88;2.30;;;2.00;99.90;;;;;;4998704;28;20925;-64
2023/03/12 02:42:18;;;;;;;6.72;2.65;;;2.00;99.90;;;;;;5000115;28;20837;-63
2023/03/12 02:44:46;;;;;;;4.07;2.42;;;2.10;99.90;;;;;;5001654;28;20417;-64
2023/03/12 02:47:13;;;;;;;5.95;2.50;;;2.20;99.90;;;;;;4999964;28;20607;-64
2023/03/12 02:49:39;;;;;;;6.18;2.50;;;2.20;99.90;;;;;;5002028;28;20469;-64
2023/03/12 02:52:06;;;;;;;5.68;2.45;;;2.20;99.00;;;;;;5004612;28;20416;-64
2023/03/12 02:54:33;;;;;;;5.57;2.20;;;2.20;99.90;;;;;;5012193;28;20839;-64
2023/03/12 02:56:59;;;;;;;6.90;2.40;;;2.20;99.90;;;;;;5003130;28;20426;-63
2023/03/12 02:59:26;;;;;;;5.63;2.47;;;2.00;96.40;;;;;;5004168;28;20424;-64
2023/03/12 03:01:56;;;;;;;5.38;2.60;;;2.00;99.90;;;;;;5004818;28;20428;-64
2023/03/12 03:04:24;;;;;;;6.50;2.38;;;2.00;99.90;;;;;;4993693;28;20418;-64
2023/03/12 03:06:51;;;;;;;6.53;2.67;;;2.10;99.90;;;;;;4993611;28;20414;-63
2023/03/12 03:09:20;;;;;;;5.10;2.13;;;2.10;99.90;;;;;;5005168;28;21226;-64
2023/03/12 03:11:47;;;;;;;4.88;2.15;;;2.10;99.90;;;;;;5002814;28;20426;-64
2023/03/12 03:14:14;;;;;;;4.93;2.53;;;2.10;99.90;;;;;;5004624;28;20412;-64
2023/03/12 03:16:41;;;;;;;6.40;2.25;;;2.10;99.90;;;;;;5003221;28;20498;-64
2023/03/12 03:19:10;;;;;;;5.47;2.50;;;2.10;99.90;;;;;;5002127;28;20480;-64
2023/03/12 03:21:36;;;;;;;4.57;2.25;;;2.10;99.90;;;;;;5003827;28;20424;-63
2023/03/12 03:24:04;;;;;;;4.45;2.20;;;2.20;99.90;;;;;;5006468;28;20432;-64
2023/03/12 03:26:31;;;;;;;5.85;2.28;;;2.10;99.90;;;;;;5003291;28;20471;-64
2023/03/12 03:28:57;;;;;;;5.10;2.20;;;2.10;99.90;;;;;;5006376;28;20422;-64
2023/03/12 03:31:24;;;;;;;7.40;2.40;;;2.10;99.90;;;;;;5006472;28;20483;-64
2023/03/12 03:33:51;;;;;;;6.55;2.25;;;2.10;99.90;;;;;;5006795;28;20784;-65
2023/03/12 03:36:19;;;;;;;5.05;2.42;;;2.10;99.90;;;;;;5003763;28;20417;-64
2023/03/12 03:38:48;;;;;;;3.72;2.30;;;2.00;99.90;;;;;;4993139;28;20419;-64
2023/03/12 03:41:15;;;;;;;5.53;2.22;;;1.90;99.90;;;;;;4992983;28;20856;-64
2023/03/12 03:43:42;;;;;;;4.32;2.30;;;1.90;99.90;;;;;;4994589;28;20426;-64
2023/03/12 03:46:10;;;;;;;7.40;2.40;;;1.90;99.90;;;;;;5004691;28;20424;-64
2023/03/12 03:48:37;;;;;;;6.82;2.38;;;1.90;99.90;;;;;;5006246;28;20492;-64
2023/03/12 03:51:06;;;;;;;4.93;2.28;;;2.00;99.90;;;;;;5004145;28;20490;-64
2023/03/12 03:53:34;;;;;;;4.38;2.22;;;2.00;99.90;;;;;;5008741;28;20451;-64
2023/03/12 03:56:05;;;;;;;4.90;2.20;;;2.10;99.90;;;;;;5009866;28;20437;-64
2023/03/12 03:58:32;;;;;;;5.32;2.33;;;2.00;99.90;;;;;;5003622;28;20419;-64
2023/03/12 04:00:59;;;;;;;6.43;2.35;;;2.10;99.90;;;;;;5000689;28;20430;-65
2023/03/12 04:03:26;;;;;;;5.32;2.53;;;2.10;99.90;;;;;;5002067;28;20423;-64
2023/03/12 04:05:55;;;;;;;5.70;2.25;;;2.10;99.90;;;;;;5003663;28;20412;-63
2023/03/12 04:08:21;;;;;;;6.35;2.17;;;2.00;99.90;;;;;;5002361;28;20465;-64
2023/03/12 04:10:49;;;;;;;5.20;2.30;;;2.00;99.90;;;;;;5001369;28;20832;-64
2023/03/12 04:13:16;;;;;;;5.40;2.38;;;2.00;99.90;;;;;;5005955;28;20426;-64
2023/03/12 04:15:47;;;;;;;3.88;2.05;;;2.10;99.90;;;;;;5006707;28;20983;-64
2023/03/12 04:18:14;;;;;;;5.70;2.35;;;2.10;99.90;;;;;;4992526;28;20435;-64
2023/03/12 04:20:41;;;;;;;5.25;1.90;;;2.00;99.90;;;;;;5004335;28;20433;-64
2023/03/12 04:23:08;;;;;;;7.20;2.28;;;2.10;99.90;;;;;;5007111;28;20417;-64
2023/03/12 04:25:35;;;;;;;4.63;2.30;;;2.20;99.90;;;;;;5009631;28;20456;-64
2023/03/12 04:28:04;;;;;;;5.38;2.10;;;2.20;99.90;;;;;;5000645;28;20430;-64
2023/03/12 04:30:31;;;;;;;6.00;2.17;;;2.10;99.90;;;;;;5001950;28;20413;-64
2023/03/12 04:32:58;;;;;;;5.37;2.30;;;2.20;99.90;;;;;;5003092;28;20839;-64
2023/03/12 04:35:25;;;;;;;6.57;2.35;;;2.20;99.90;;;;;;5000958;28;20417;-64
2023/03/12 04:37:52;;;;;;;3.85;2.28;;;2.20;99.90;;;;;;5001240;28;20445;-63
2023/03/12 04:40:19;;;;;;;5.20;2.25;;;2.30;96.20;;;;;;5002865;28;20428;-64
2023/03/12 04:42:45;;;;;;;5.35;2.20;;;2.30;95.20;;;;;;5001402;28;20473;-64
2023/03/12 04:45:13;;;;;;;4.20;2.27;;;2.40;64.20;;;;;;5000367;28;20984;-64
2023/03/12 04:47:40;;;;;;;5.57;2.53;;;2.40;82.10;;;;;;4991684;28;20968;-64
2023/03/12 04:50:08;;;;;;;5.65;2.05;;;2.40;90.50;;;;;;4991627;28;20414;-64
2023/03/12 04:52:35;;;;;;;5.63;2.05;;;2.50;97.90;;;;;;5004876;28;20429;-65
2023/03/12 04:55:01;;;;;;;5.15;2.40;;;2.50;91.30;;;;;;5006600;28;20429;-64
2023/03/12 04:57:28;;;;;;;4.90;2.13;;;2.50;79.50;;;;;;5000573;28;20420;-64
2023/03/12 04:59:55;;;;;;;4.63;2.30;;;2.50;60.10;;;;;;5006471;28;20432;-65
2023/03/12 05:02:23;;;;;;;4.82;2.20;;;2.50;99.90;;;;;;5002293;28;20420;-65
2023/03/12 05:04:49;;;;;;;6.28;2.03;;;2.50;62.00;;;;;;4999941;28;20835;-64
2023/03/12 05:07:16;;;;;;;6.18;2.20;;;2.50;22.70;;;;;;5001139;28;20904;-65
2023/03/12 05:09:45;;;;;;;5.13;1.95;;;2.40;99.90;;;;;;5002188;28;20868;-64
2023/03/12 05:12:11;;;;;;;5.10;2.33;;;2.60;99.90;;;;;;5000537;28;20454;-64
2023/03/12 05:14:38;;;;;;;6.68;2.20;;;2.60;56.40;;;;;;5000249;28;20468;-64
2023/03/12 05:17:05;;;;;;;4.63;2.00;;;2.60;13.70;;;;;;5000043;28;20516;-63
2023/03/12 05:19:33;;;;;;;5.97;2.30;;;2.60;37.10;;;;;;5007438;28;20432;-65
2023/03/12 05:22:01;;;;;;;6.17;2.00;;;2.70;33.30;;;;;;5000571;28;20430;-64
2023/03/12 05:24:28;;;;;;;5.50;2.00;;;2.70;25.80;;;;;;5011040;28;20424;-64
2023/03/12 05:26:54;;;;;;;7.63;2.20;;;2.60;38.60;;;;;;5000463;28;20481;-64
2023/03/12 05:29:21;;;;;;;6.30;2.03;;;2.60;23.80;;;;;;5001870;28;20471;-64
2023/03/12 05:31:48;;;;;;;3.80;2.00;;;2.60;7.70;;;;;;5002090;28;20471;-63
2023/03/12 05:34:16;;;;;;;4.55;2.50;;;2.50;36.60;;;;;;4999383;28;20510;-64
2023/03/12 05:36:44;;;;;;;4.07;2.03;;;2.50;40.70;;;;;;5001407;28;20413;-64
2023/03/12 05:39:11;;;;;;;5.35;2.20;;;2.60;23.50;;;;;;5001323;28;20501;-64
2023/03/12 05:41:38;;;;;;;5.53;2.00;;;2.60;36.60;;;;;;5003602;28;20471;-63
2023/03/12 05:44:05;;;;;;;4.93;2.10;;;2.60;52.30;;;;;;5004004;28;20406;-64
2023/03/12 05:46:31;;;;;;;4.85;2.15;;;2.60;41.50;;;;;;5009881;28;20830;-64
2023/03/12 05:48:58;;;;;;;4.68;2.10;;;2.60;48.00;;;;;;5003531;28;20483;-64
2023/03/12 05:51:25;;;;;;;4.18;2.20;;;2.60;58.60;;;;;;5001929;28;20420;-64
2023/03/12 05:53:53;;;;;;;5.10;2.15;;;2.60;77.90;;;;;;5005728;28;20421;-63
2023/03/12 05:56:19;;;;;;;7.72;2.15;;;2.60;83.10;;;;;;5002453;28;20422;-64
2023/03/12 05:58:48;;;;;;;6.97;2.20;;;2.60;29.80;;;;;;4999468;28;20476;-63
2023/03/12 06:01:17;;;;;;;4.18;2.13;;;2.70;65.60;;;;;;5000000;28;20430;-63
2023/03/12 06:03:43;;;;;;;3.73;2.00;;;2.70;99.90;;;;;;5001854;28;20499;-64
2023/03/12 06:06:10;;;;;;;5.78;2.35;;;2.60;99.90;;;;;;4999294;28;20418;-63
2023/03/12 06:08:38;;;;;;;5.70;2.17;;;2.60;99.90;;;;;;4999462;28;20418;-64
2023/03/12 06:11:06;;;;;;;5.78;2.03;;;2.60;99.90;;;;;;5001344;28;20972;-64
2023/03/12 06:13:33;;;;;;;6.10;2.20;;;2.60;99.90;;;;;;5003847;28;20487;-64
2023/03/12 06:16:04;;;;;;;4.43;2.10;;;2.60;99.90;;;;;;5002031;28;20826;-64
2023/03/12 06:18:31;;;;;;;6.53;2.58;;;2.50;99.90;;;;;;4997851;28;20412;-64
2023/03/12 06:21:08;;;;;;;6.13;2.47;;;2.60;1.00;;;;;;4998393;28;20517;-64
2023/03/12 06:23:35;;;;;;;6.53;2.58;;;2.50;85.60;;;;;;5007564;28;20420;-64
2023/03/12 06:26:01;;;;;;;6.07;2.40;;;2.50;99.90;;;;;;5011170;28;20491;-63
2023/03/12 06:28:29;;;;;;;3.83;2.40;;;2.50;1.00;;;;;;5004895;28;20486;-64
2023/03/12 06:30:56;;;;;;;6.10;2.30;;;2.50;1.00;;;;;;5003009;28;20418;-64
2023/03/12 06:33:23;;;;;;;6.60;2.33;;;2.50;1.30;;;;;;5004168;28;20478;-63
2023/03/12 06:35:52;;;;;;;8.55;2.30;;;2.40;99.90;;;;;;5005018;28;20429;-64
2023/03/12 06:38:19;;;;;;;5.72;2.40;;;2.50;99.90;;;;;;5003966;28;20477;-64
2023/03/12 06:40:53;;;;;;;4.55;2.70;;;2.40;1.00;;;;;;5002396;28;20485;-65
2023/03/12 06:43:20;;;;;;;3.90;2.47;;;2.40;99.90;;;;;;5003907;28;20417;-64
2023/03/12 06:45:48;;;;;;;7.05;2.38;;;2.50;99.90;;;;;;5005044;28;20420;-64
2023/03/12 06:48:15;;;;;;;6.90;2.47;;;2.50;1.00;;;;;;4999707;28;20909;-63
2023/03/12 06:50:41;;;;;;;4.25;2.47;;;2.50;7.00;;;;;;5006821;28;20881;-64
2023/03/12 06:53:09;;;;;;;6.22;2.95;;;2.50;99.90;;;;;;5007834;28;20872;-64
2023/03/12 06:55:36;;;;;;;7.35;3.15;;;2.60;1.00;;;;;;5012482;28;20416;-63
2023/03/12 06:58:03;;;;;;;4.85;2.88;;;2.50;1.00;;;;;;5006168;28;20416;-63
2023/03/12 07:00:30;;;;;;;6.80;2.67;;;2.60;99.90;;;;;;5003075;28;20426;-64
2023/03/12 07:02:58;;;;;;;4.87;2.63;;;2.50;1.00;;;;;;5002809;28;20475;-63
2023/03/12 07:05:25;;;;;;;6.15;2.78;;;2.50;99.90;;;;;;4993913;28;20472;-64
2023/03/12 07:07:52;;;;;;;7.68;2.88;;;2.50;1.00;;;;;;4993449;28;20894;-64
2023/03/12 07:10:18;;;;;;;5.00;2.90;;;2.60;99.90;;;;;;4993412;28;20476;-64
2023/03/12 07:12:45;;;;;;;6.22;2.70;;;2.60;99.90;;;;;;4993689;28;20830;-64
2023/03/12 07:15:12;;;;;;;5.20;2.88;;;2.60;99.90;;;;;;4993433;28;20509;-64
2023/03/12 07:17:39;;;;;;;7.97;3.33;;;2.60;1.00;;;;;;5004308;28;20505;-64
2023/03/12 07:20:09;;;;;;;7.05;3.20;;;2.50;1.00;;;;;;5003619;28;20482;-64
2023/03/12 07:22:35;;;;;;;6.45;3.42;;;2.60;1.00;;;;;;5002755;28;20401;-64
2023/03/12 07:25:02;;;;;;;6.80;3.40;;;2.60;1.00;;;;;;5011349;28;20433;-64
2023/03/12 07:27:29;;;;;;;6.63;3.78;;;2.60;1.00;;;;;;5004809;28;20420;-65
2023/03/12 07:29:55;;;;;;;7.53;3.50;;;2.60;10.50;;;;;;5002443;28;20414;-64
2023/03/12 07:32:22;;;;;;;9.07;3.97;;;2.70;15.10;;;;;;5002347;28;20430;-64
2023/03/12 07:34:49;;;;;;;7.18;3.65;;;2.80;21.80;;;;;;5004270;28;20420;-64
2023/03/12 07:37:17;;;;;;;8.55;3.80;;;2.90;24.60;;;;;;5000353;28;20414;-64
2023/03/12 07:39:44;;;;;;;24.00;9.82;;;2.80;29.50;;;;;;5003947;28;20416;-64
2023/03/12 07:42:11;;;;;;;9.27;4.20;;;2.90;49.10;;;;;;5002050;28;20429;-64
2023/03/12 07:44:38;;;;;;;7.82;4.18;;;2.90;56.30;;;;;;5002107;28;20422;-64
2023/03/12 07:47:05;;;;;;;6.88;4.32;;;2.90;65.30;;;;;;5001476;28;20952;-64
2023/03/12 07:49:32;;;;;;;9.43;4.20;;;2.90;71.60;;;;;;5002528;28;20429;-64
2023/03/12 07:51:59;;;;;;;8.65;3.90;;;2.90;80.20;;;;;;5003885;28;20444;-64
2023/03/12 07:54:29;;;;;;;9.07;4.82;;;3.00;83.60;;;;;;5009775;28;20483;-64
2023/03/12 07:56:56;;;;;;;8.00;4.03;;;2.90;92.90;;;;;;5001566;28;20422;-64
2023/03/12 07:59:22;;;;;;;12.50;4.60;;;3.00;99.30;;;;;;5003291;28;20424;-64
2023/03/12 08:01:49;;;;;;;5.15;4.03;;;3.10;99.90;;;;;;5003177;28;20475;-64
2023/03/12 08:04:16;;;;;;;8.95;4.30;;;3.10;99.90;;;;;;5001078;28;20485;-64
2023/03/12 08:06:43;;;;;;;7.43;4.10;;;3.20;99.90;;;;;;5002381;28;20495;-64
2023/03/12 08:09:09;;;;;;;6.72;4.35;;;3.10;99.90;;;;;;5003677;28;20486;-64
2023/03/12 08:11:37;;;;;;;8.80;3.90;;;3.20;99.90;;;;;;5001562;28;20410;-64
2023/03/12 08:14:04;;;;;;;9.70;4.65;;;3.30;99.90;;;;;;5001547;28;20418;-64
2023/03/12 08:16:31;;;;;;;6.80;4.60;;;3.30;99.90;;;;;;5003160;28;20938;-65
2023/03/12 08:18:58;;;;;;;6.67;4.27;;;3.20;99.90;;;;;;5002339;28;20767;-64
2023/03/12 08:21:25;;;;;;;8.90;4.63;;;3.30;99.90;;;;;;5000991;28;20844;-63
2023/03/12 08:23:51;;;;;;;6.47;4.10;;;3.30;99.90;;;;;;5008098;28;20421;-64
2023/03/12 08:26:18;;;;;;;8.73;4.45;;;3.40;99.90;;;;;;5003757;28;20480;-64
2023/03/12 08:28:46;;;;;;;6.60;4.30;;;3.40;99.90;;;;;;5003328;28;20417;-64
2023/03/12 08:31:13;;;;;;;8.32;4.20;;;3.40;99.90;;;;;;5002397;28;20424;-63
2023/03/12 08:33:42;;;;;;;8.73;4.60;;;3.50;99.90;;;;;;4999886;28;20418;-63
2023/03/12 08:36:09;;;;;;;7.93;4.47;;;3.50;99.90;;;;;;5001465;28;20426;-63
2023/03/12 08:38:35;;;;;;;8.65;4.53;;;3.50;99.90;;;;;;5000556;28;20485;-62
2023/03/12 08:41:02;;;;;;;10.43;4.55;;;3.50;99.90;;;;;;5000403;28;20431;-63
2023/03/12 08:43:29;;;;;;;9.02;4.47;;;3.60;99.90;;;;;;5000915;28;20533;-63
2023/03/12 08:45:58;;;;;;;6.38;4.55;;;3.60;99.90;;;;;;5001069;28;20944;-63
2023/03/12 08:48:26;;;;;;;11.35;4.88;;;3.70;99.90;;;;;;5005962;28;20498;-63
2023/03/12 08:50:55;;;;;;;7.72;4.88;;;3.70;99.90;;;;;;5000351;28;20415;-62
2023/03/12 08:53:22;;;;;;;8.23;4.72;;;3.70;99.90;;;;;;5006323;28;20417;-63
2023/03/12 08:55:49;;;;;;;8.55;5.35;;;3.80;99.90;;;;;;5006555;28;20929;-63
2023/03/12 08:58:15;;;;;;;9.67;5.63;;;3.90;99.90;;;;;;5001813;28;21127;-63
2023/03/12 09:00:42;;;;;;;6.18;4.45;;;4.00;99.90;;;;;;5006367;28;20999;-63
2023/03/12 09:03:13;;;;;;;9.23;4.80;;;3.90;99.90;;;;;;5007540;28;20903;-65
2023/03/12 09:05:40;;;;;;;6.85;5.13;;;3.90;99.90;;;;;;5001535;28;20867;-63
2023/03/12 09:08:07;;;;;;;11.18;5.32;;;4.00;99.90;;;;;;4999924;28;20418;-64
2023/03/12 09:10:34;;;;;;;8.27;5.57;;;4.10;99.90;;;;;;5001546;28;20421;-64
2023/03/12 09:13:00;;;;;;;7.10;4.82;;;4.10;99.90;;;;;;5002094;28;20860;-64
2023/03/12 09:15:27;;;;;;;6.82;4.70;;;4.20;99.90;;;;;;4999996;28;20473;-65
2023/03/12 09:17:55;;;;;;;8.10;4.93;;;4.20;99.90;;;;;;5000680;28;20419;-64
2023/03/12 09:20:24;;;;;;;8.75;5.05;;;4.20;99.90;;;;;;5002350;28;20427;-64
2023/03/12 09:22:51;;;;;;;7.43;4.75;;;4.20;99.90;;;;;;5001501;28;20786;-64
2023/03/12 09:25:18;;;;;;;5.65;4.70;;;4.20;99.90;;;;;;5007974;28;20422;-64
2023/03/12 09:27:47;;;;;;;6.30;4.65;;;4.20;99.90;;;;;;5001405;28;20880;-64
2023/03/12 09:30:16;;;;;;;8.70;5.13;;;4.30;99.90;;;;;;5001829;28;20420;-64
2023/03/12 09:32:44;;;;;;;6.13;4.33;;;4.30;99.90;;;;;;4999868;28;20897;-64
2023/03/12 09:35:11;;;;;;;6.65;4.40;;;4.40;99.90;;;;;;5000000;28;20500;-63
2023/03/12 09:37:39;;;;;;;8.55;4.90;;;4.30;99.90;;;;;;5001698;28;20892;-64
2023/03/12 09:40:08;;;;;;;6.07;4.30;;;4.30;99.90;;;;;;5000952;28;20432;-64
2023/03/12 09:42:43;;;;;;;6.57;4.15;;;4.50;99.90;;;;;;4999425;28;20484;-64
2023/03/12 09:45:16;;;;;;;5.57;4.67;;;4.60;99.90;;;;;;5003228;28;20478;-64
2023/03/12 09:47:47;;;;;;;8.75;5.15;;;4.40;99.90;;;;;;5000341;28;20410;-64
2023/03/12 09:50:22;;;;;;;8.25;5.00;;;4.50;99.90;;;;;;4999522;28;20420;-64
2023/03/12 09:52:56;;;;;;;6.97;4.90;;;4.50;99.90;;;;;;5005525;28;20530;-63
2023/03/12 09:55:24;;;;;;;5.23;4.73;;;4.50;99.90;;;;;;5008271;28;20435;-64
2023/03/12 09:57:51;;;;;;;6.47;4.78;;;4.50;99.90;;;;;;5000096;28;20418;-64
2023/03/12 10:00:20;;;;;;;6.93;4.63;;;4.60;99.90;;;;;;4995245;28;20421;-64
2023/03/12 10:02:59;;;;;;;7.28;5.40;;;4.50;99.90;;;;;;4995181;28;20445;-64
2023/03/12 10:05:34;;;;;;;6.47;5.43;;;4.50;99.90;;;;;;5004784;28;20418;-64
2023/03/12 10:08:07;;;;;;;6.82;4.88;;;4.60;99.90;;;;;;4994666;28;20422;-64
2023/03/12 10:10:49;;;;;;;5.78;5.18;;;4.60;99.90;;;;;;4994947;28;20415;-64
2023/03/12 10:13:29;;;;;;;7.40;5.80;;;4.70;99.90;;;;;;5002092;28;20836;-64
2023/03/12 10:16:08;;;;;;;6.93;5.57;;;4.60;99.90;;;;;;5005172;28;20872;-64
2023/03/12 10:18:53;;;;;;;7.83;6.17;;;4.60;99.90;;;;;;5001959;28;20418;-64
2023/03/12 10:21:24;;;;;;;7.50;6.50;;;4.50;99.90;;;;;;4994546;28;20437;-64
2023/03/12 10:24:16;;;;;;;10.52;6.43;;;4.50;99.90;;;;;;5004972;28;20901;-65
2023/03/12 10:26:47;;;;;;;8.97;7.23;;;4.50;99.90;;;;;;5006064;28;20467;-61
2023/03/12 10:29:17;;;;;;;8.75;6.82;;;4.70;99.90;;;;;;5011473;28;20501;-64
2023/03/12 10:31:51;;;;;;;7.85;6.78;;;4.70;99.90;;;;;;5009585;28;20471;-64
2023/03/12 10:34:25;;;;;;;7.45;6.75;;;4.70;99.90;;;;;;5004086;28;20473;-63
2023/03/12 10:36:52;;;;;;;9.07;7.32;;;4.80;99.90;;;;;;5002253;28;20781;-64
2023/03/12 10:39:21;;;;;;;9.27;8.30;;;4.70;99.90;;;;;;5004201;28;20420;-64
2023/03/12 10:41:48;;;;;;;8.63;7.78;;;4.80;99.90;;;;;;5004348;28;20435;-64
2023/03/12 10:44:20;;;;;;;7.53;6.82;;;5.00;99.90;;;;;;5002223;28;20426;-65
2023/03/12 10:47:13;;;;;;;7.30;6.55;;;5.00;99.90;;;;;;5002531;28;20426;-63
2023/03/12 10:49:40;;;;;;;7.80;6.53;;;5.10;99.90;;;;;;5002907;28;20428;-63
2023/03/12 10:52:16;;;;;;;7.17;6.47;;;5.10;99.90;;;;;;5003591;28;20414;-63
2023/03/12 10:54:45;;;;;;;6.33;5.67;;;5.20;99.90;;;;;;5008635;28;20506;-62
2023/03/12 10:57:12;;;;;;;7.22;5.90;;;5.30;99.90;;;;;;5004332;28;20909;-59
2023/03/12 10:59:41;;;;;;;7.07;6.20;;;5.30;99.90;;;;;;5002807;28;20476;-62
2023/03/12 11:02:30;;;;;;;6.77;6.07;;;5.40;99.90;;;;;;5002945;28;20426;-61
2023/03/12 11:04:57;;;;;;;7.90;6.33;;;5.50;99.90;;;;;;4992880;28;20914;-62
2023/03/12 11:07:27;;;;;;;7.67;6.70;;;5.60;99.90;;;;;;5008523;28;20421;-61
2023/03/12 11:10:17;;;;;;;7.72;6.93;;;5.80;99.90;;;;;;5002203;28;20786;-61
2023/03/12 11:12:55;;;;;;;;;;;5.80;99.90;;;;;;5005308;28;20470;-64
2023/03/12 11:15:24;;;;;;;8.57;7.18;;;6.00;99.90;;;;;;5004495;28;20441;-64
2023/03/12 11:17:51;;;;;;;6.55;5.88;;;6.00;99.90;;;;;;5003908;28;20792;-62
2023/03/12 11:20:25;;;;;;;7.67;6.30;;;6.20;99.90;;;;;;5003907;28;20408;-60
2023/03/12 11:22:51;;;;;;;7.55;6.57;;;6.30;99.90;;;;;;4996252;28;20419;-60
2023/03/12 11:25:25;;;;;;;6.65;6.05;;;6.30;99.90;;;;;;5007545;28;20425;-64
2023/03/12 11:27:54;;;;;;;7.82;6.82;;;6.30;99.90;;;;;;4997357;28;20437;-60
2023/03/12 11:30:26;;;;;;;8.02;7.22;;;6.30;99.90;;;;;;5008285;28;20797;-60
2023/03/12 11:32:54;;;;;;;8.93;7.70;;;6.40;99.90;;;;;;5004654;28;20478;-63
2023/03/12 11:35:30;;;;;;;8.77;7.88;;;6.50;99.90;;;;;;5003665;28;20511;-61
2023/03/12 11:37:59;;;;;;;;;;;6.50;99.90;;;;;;5004579;28;20421;-60
2023/03/12 11:40:33;;;;;;;;;;;6.60;99.90;;;;;;5002735;28;19921;-61
2023/03/12 11:43:12;;;;;;;;;;;6.60;99.90;;;;;;5002944;28;20265;-62
2023/03/12 11:45:45;;;;;;;;;;;6.60;99.90;;;;;;5004910;28;19926;-62
2023/03/12 11:48:17;;;;;;;;;;;6.70;99.90;;;;;;5003344;28;19926;-62
2023/03/12 11:50:51;;;;;;;;;;;6.80;99.90;;;;;;5002528;28;19968;-62
2023/03/12 11:53:31;;;;;;;;;;;7.00;99.90;;;;;;5007240;28;19928;-61
2023/03/12 11:56:04;;;;;;;;;;;7.10;99.90;;;;;;5005475;28;19964;-61
2023/03/12 11:58:38;;;;;;;;;;;7.20;99.90;;;;;;5005291;28;20332;-61
2023/03/12 12:01:08;;;;;;;;;;;7.20;99.90;;;;;;5004480;28;19925;-61
2023/03/12 12:03:58;;;;;;;8.95;7.80;;;7.40;99.90;;;;;;5002587;28;19992;-60
2023/03/12 12:06:36;;;;;;;7.68;6.80;;;7.60;99.90;;;;;;5001633;28;20417;-59
2023/03/12 12:09:14;;;;;;;9.10;7.13;;;7.70;99.90;;;;;;5001581;28;20809;-56
2023/03/12 12:11:53;;;;;;;8.75;7.30;;;7.80;99.90;;;;;;5000933;28;20414;-61
2023/03/12 12:14:30;;;;;;;9.38;8.20;;;7.80;99.90;;;;;;5004965;28;20494;-61
2023/03/12 12:17:08;;;;;;;9.15;7.10;;;7.90;99.90;;;;;;5005971;28;20498;-62
2023/03/12 12:19:48;;;;;;;7.82;7.03;;;7.90;99.90;;;;;;5002238;28;20472;-61
2023/03/12 12:22:34;;;;;;;8.70;6.90;;;8.00;99.90;;;;;;5000656;28;20441;-61
2023/03/12 12:25:21;;;;;;;7.75;6.85;;;8.10;99.90;;;;;;5004571;28;20440;-60
2023/03/12 12:28:00;;;;;;;8.60;7.25;;;8.10;99.90;;;;;;4992351;28;20421;-62
2023/03/12 12:30:38;;;;;;;10.02;7.70;;;8.20;99.90;;;;;;4999662;28;20825;-62
2023/03/12 12:33:17;;;;;;;10.18;8.10;;;8.10;99.90;;;;;;5001220;28;20465;-62
2023/03/12 12:35:45;;;;;;;10.68;8.80;;;8.10;99.90;;;;;;4991378;28;20426;-62
2023/03/12 12:38:18;;;;;;;12.95;9.30;;;8.10;99.90;;;;;;4991543;28;20476;-61
2023/03/12 12:40:51;;;;;;;12.95;9.30;;;8.20;99.90;;;;;;5000455;28;20473;-62
2023/03/12 12:43:23;;;;;;;;;;;8.20;99.90;;;;;;5001137;28;20457;-61
2023/03/12 12:45:51;;;;;;;;;;;8.20;99.90;;;;;;5003584;28;20351;-61
2023/03/12 12:48:20;;;;;;;;;;;8.20;99.90;;;;;;5004838;28;19925;-61
2023/03/12 12:50:47;;;;;;;;;;;8.30;99.90;;;;;;5002744;28;19925;-61
2023/03/12 12:53:17;;;;;;;;;;;8.20;99.90;;;;;;5008223;28;19921;-62
2023/03/12 12:55:49;;;;;;;;;;;8.20;99.90;;;;;;5002222;28;19921;-62
2023/03/12 12:58:18;;;;;;;;;;;8.20;99.90;;;;;;5004397;28;19925;-63
2023/03/12 13:00:48;;;;;;;;;;;8.30;99.90;;;;;;5002418;28;19984;-61
2023/03/12 13:03:16;;;;;;;;;;;8.30;99.90;;;;;;5001883;28;19964;-63
2023/03/12 13:05:49;;;;;;;;;;;8.10;99.90;;;;;;5003775;28;19964;-60
2023/03/12 13:08:34;;;;;;;;;;;8.20;99.90;;;;;;5010536;28;19926;-61
2023/03/12 13:11:03;;;;;;;;;;;8.20;99.90;;;;;;5002291;28;19996;-61
2023/03/12 13:13:30;;;;;;;;;;;8.20;99.90;;;;;;5009146;28;19960;-61
2023/03/12 13:16:11;;;;;;;;;;;8.30;99.90;;;;;;5001980;28;19922;-61